Time;durP1;ratioP1;P1;durP2;ratioP2;P2;SDS_P1;SDS_P2;PMS_P1;PMS_P2;Temp;Humidity;BMP_temperature;BMP_pressure;BME280_temperature;BME280_humidity;BME280_pressure;Samples;Min_cycle;Max_cycle;Signal;HPM_P1;HPM_P2
2021/08/24 00:01:57;;;;;;;4.00;3.42;;;;;;;29.48;58.85;100650.63;5031399;28;66038;-41
2021/08/24 00:04:27;;;;;;;3.38;3.05;;;;;;;29.52;59.11;100651.84;5033442;28;70016;-41
2021/08/24 00:06:58;;;;;;;10.90;3.72;;;;;;;29.46;59.46;100641.09;5030604;28;65714;-41
2021/08/24 00:09:28;;;;;;;7.47;3.03;;;;;;;29.55;59.75;100650.59;5033668;28;70420;-40
2021/08/24 00:12:01;;;;;;;3.55;3.20;;;;;;;29.49;59.87;100644.19;5030338;28;65863;-40
2021/08/24 00:14:35;;;;;;;4.40;4.00;;;;;;;29.59;62.20;100660.75;5029358;28;70041;-40
2021/08/24 00:17:06;;;;;;;4.05;3.75;;;;;;;29.58;63.21;100655.56;5033514;28;66359;-40
2021/08/24 00:19:43;;;;;;;4.32;3.80;;;;;;;29.68;63.56;100666.75;5034505;28;70143;-40
2021/08/24 00:22:13;;;;;;;4.15;3.50;;;;;;;29.70;63.06;100664.69;5033195;28;66346;-40
2021/08/24 00:24:43;;;;;;;5.10;3.80;;;;;;;29.73;64.77;100668.81;5031737;28;69649;-38
2021/08/24 00:27:15;;;;;;;5.50;4.13;;;;;;;29.71;64.28;100671.72;5030945;28;66005;-39
2021/08/24 00:29:45;;;;;;;4.50;4.10;;;;;;;29.78;65.13;100680.66;5033787;28;70066;-39
2021/08/24 00:32:16;;;;;;;4.78;4.28;;;;;;;29.84;64.20;100679.75;5034416;28;66160;-39
2021/08/24 00:34:47;;;;;;;5.05;4.05;;;;;;;29.87;64.64;100685.78;5031826;28;70393;-39
2021/08/24 00:37:19;;;;;;;5.55;3.47;;;;;;;29.88;66.18;100685.56;5051728;28;65210;-39
2021/08/24 00:39:50;;;;;;;5.13;4.15;;;;;;;29.92;64.24;100680.53;5035240;28;70555;-40
2021/08/24 00:42:21;;;;;;;10.05;3.75;;;;;;;29.94;65.24;100681.16;5035255;28;66609;-40
2021/08/24 00:44:52;;;;;;;5.10;4.35;;;;;;;30.03;64.89;100696.06;5033698;28;69319;-40
2021/08/24 00:47:26;;;;;;;5.28;3.83;;;;;;;29.83;64.53;100664.56;5028755;28;66111;-39
2021/08/24 00:50:05;;;;;;;4.28;3.28;;;;;;;30.04;65.99;100692.31;5033954;28;69410;-39
2021/08/24 00:52:35;;;;;;;4.00;3.60;;;;;;;30.04;64.71;100686.91;5035265;28;65884;-39
2021/08/24 00:55:06;;;;;;;4.30;3.90;;;;;;;30.10;64.44;100686.03;5033855;28;69351;-39
2021/08/24 00:57:37;;;;;;;4.20;3.80;;;;;;;30.10;64.81;100691.44;5034737;28;66638;-40
2021/08/24 01:00:07;;;;;;;3.55;3.25;;;;;;;30.09;65.19;100692.50;5050085;28;69271;-39
2021/08/24 01:02:38;;;;;;;3.28;2.97;;;;;;;30.10;66.19;100702.25;5031765;28;66305;-39
2021/08/24 01:05:11;;;;;;;3.35;3.05;;;;;;;30.03;66.13;100696.91;5034170;28;70291;-39
2021/08/24 01:07:58;;;;;;;5.35;3.33;;;;;;;29.83;66.75;100664.56;5030003;28;66288;-39
2021/08/24 01:10:41;;;;;;;3.20;2.90;;;;;;;30.16;66.97;100723.03;5043837;28;69358;-39
2021/08/24 01:13:32;;;;;;;4.28;2.97;;;;;;;30.21;66.66;100708.84;5031023;28;65505;-38
2021/08/24 01:16:13;;;;;;;4.88;3.20;;;;;;;30.13;67.17;100707.22;5029340;28;69283;-40
2021/08/24 01:18:56;;;;;;;3.30;3.00;;;;;;;29.84;67.38;100660.84;5031743;28;65974;-40
2021/08/24 01:22:00;;;;;;;3.40;3.10;;;;;;;30.17;67.11;100718.44;5029458;28;69788;-40
2021/08/24 01:24:36;;;;;;;2.90;2.70;;;;;;;30.30;66.13;100717.53;5031055;28;66348;-40
2021/08/24 01:27:20;;;;;;;3.08;2.80;;;;;;;30.29;66.33;100714.03;5030613;28;70521;-43
2021/08/24 01:30:23;;;;;;;3.22;2.60;;;;;;;30.27;66.40;100714.22;5029331;28;66256;-40
2021/08/24 01:33:28;;;;;;;3.55;2.53;;;;;;;30.08;65.83;100674.59;5029394;28;69640;-40
2021/08/24 01:36:45;;;;;;;2.90;2.40;;;;;;;30.25;66.10;100707.38;5011961;28;66082;-39
2021/08/24 01:39:25;;;;;;;4.40;2.20;;;;;;;30.33;65.79;100703.56;5028074;28;70101;-40
2021/08/24 01:42:10;;;;;;;2.42;2.22;;;;;;;30.40;65.53;100728.72;5030793;28;66059;-39
2021/08/24 01:44:54;;;;;;;4.72;2.65;;;;;;;30.48;66.67;100714.91;5029582;28;70131;-40
2021/08/24 01:47:39;;;;;;;2.92;2.53;;;;;;;30.49;66.68;100722.78;5030810;28;64799;-40
2021/08/24 01:50:27;;;;;;;2.53;2.13;;;;;;;30.34;66.19;100687.13;5029553;28;69399;-40
2021/08/24 01:53:17;;;;;;;2.78;2.58;;;;;;;30.53;66.01;100717.75;5026239;28;43653;-40
2021/08/24 01:55:59;;;;;;;3.40;2.25;;;;;;;30.48;66.10;100706.78;5027801;28;69926;-40
2021/08/24 01:58:35;;;;;;;2.55;2.08;;;;;;;30.57;66.00;100702.75;5024932;28;66386;-41
2021/08/24 02:01:08;;;;;;;2.65;2.45;;;;;;;30.66;66.00;100723.06;5028212;28;70253;-41
2021/08/24 02:03:44;;;;;;;4.05;2.55;;;;;;;30.54;66.40;100696.94;5027970;28;66587;-39
2021/08/24 02:06:22;;;;;;;6.80;2.45;;;;;;;30.80;66.65;100720.25;5033055;28;70101;-40
2021/08/24 02:08:56;;;;;;;6.93;2.50;;;;;;;30.86;66.00;100722.06;5024389;28;66195;-41
2021/08/24 02:11:32;;;;;;;2.65;1.63;;;;;;;30.70;66.60;100690.94;5025238;28;70051;-40
2021/08/24 02:14:08;;;;;;;7.65;1.30;;;;;;;30.99;67.97;100727.34;5026204;28;66111;-41
2021/08/24 02:16:45;;;;;;;1.98;1.50;;;;;;;30.86;66.25;100684.97;5024167;28;70449;-41
2021/08/24 02:19:24;;;;;;;4.43;1.83;;;;;;;31.14;66.48;100714.25;5030341;28;65428;-41
2021/08/24 02:22:05;;;;;;;1.52;1.35;;;;;;;31.15;66.54;100709.66;5027857;28;70283;-41
2021/08/24 02:24:42;;;;;;;1.30;0.90;;;;;;;31.15;65.60;100699.66;5027331;28;65899;-42
2021/08/24 02:27:21;;;;;;;1.65;0.70;;;;;;;31.27;65.52;100707.03;5012556;28;70050;-42
2021/08/24 02:29:52;;;;;;;1.00;0.82;;;;;;;31.33;64.83;100712.34;5024331;28;66485;-42
2021/08/24 02:32:29;;;;;;;1.90;0.80;;;;;;;31.39;64.45;100702.50;5028694;28;70202;-42
2021/08/24 02:35:36;;;;;;;0.98;0.75;;;;;;;31.34;64.61;100705.03;5021865;28;65283;-41
2021/08/24 02:38:26;;;;;;;3.72;1.50;;;;;;;31.40;66.14;100701.47;5020905;28;70317;-42
2021/08/24 02:41:01;;;;;;;1.50;0.93;;;;;;;31.47;66.26;100698.66;5006279;28;65350;-42
2021/08/24 02:43:43;;;;;;;3.88;1.13;;;;;;;31.51;65.34;100694.44;5023509;28;70079;-41
2021/08/24 02:46:18;;;;;;;1.88;1.10;;;;;;;31.54;65.35;100681.25;5018226;28;65273;-43
2021/08/24 02:48:53;;;;;;;1.08;0.88;;;;;;;31.41;64.38;100646.19;5028169;28;69780;-42
2021/08/24 02:51:27;;;;;;;1.10;0.73;;;;;;;31.50;62.33;100696.31;4993072;28;65440;-43
2021/08/24 02:54:27;;;;;;;2.60;0.63;;;;;;;31.26;60.28;100692.66;5034796;28;69066;-40
2021/08/24 02:57:01;;;;;;;0.70;0.55;;;;;;;31.20;58.43;100685.41;5027329;28;65670;-40
2021/08/24 02:59:31;;;;;;;4.25;0.65;;;;;;;31.12;57.55;100677.59;5013694;28;69051;-42
2021/08/24 03:02:03;;;;;;;1.00;0.70;;;;;;;30.88;56.52;100660.38;5032824;28;66154;-43
2021/08/24 03:04:34;;;;;;;0.85;0.60;;;;;;;30.90;55.60;100685.38;5006518;28;70022;-41
2021/08/24 03:07:27;;;;;;;1.05;0.60;;;;;;;30.71;54.61;100682.59;5028177;28;66248;-41
2021/08/24 03:10:01;;;;;;;0.70;0.60;;;;;;;30.75;54.31;100682.97;5032459;28;71228;-41
2021/08/24 03:12:59;;;;;;;1.02;0.60;;;;;;;30.58;53.15;100687.31;5032344;28;66188;-40
2021/08/24 03:15:36;;;;;;;0.98;0.63;;;;;;;30.59;52.48;100673.56;5027478;28;69331;-40
2021/08/24 03:18:33;;;;;;;1.95;0.82;;;;;;;30.55;51.72;100679.66;5032111;28;66668;-43
2021/08/24 03:21:07;;;;;;;1.08;0.50;;;;;;;30.30;51.65;100631.78;5027229;28;70211;-41
2021/08/24 03:23:39;;;;;;;0.55;0.47;;;;;;;30.47;51.94;100676.16;5029072;28;65260;-41
2021/08/24 03:26:13;;;;;;;0.77;0.50;;;;;;;30.44;51.23;100665.78;5024099;28;70349;-43
2021/08/24 03:28:43;;;;;;;0.50;0.40;;;;;;;30.31;50.65;100643.44;5015815;28;64667;-43
2021/08/24 03:31:17;;;;;;;2.57;0.60;;;;;;;30.08;50.17;100615.09;5023355;28;69773;-44
2021/08/24 03:33:49;;;;;;;0.80;0.40;;;;;;;30.30;49.99;100647.19;4996324;28;66214;-39
2021/08/24 03:36:20;;;;;;;1.20;0.50;;;;;;;30.24;49.11;100644.31;5043708;28;71647;-42
2021/08/24 03:38:50;;;;;;;1.13;0.50;;;;;;;30.23;48.64;100648.09;5028124;28;66760;-40
2021/08/24 03:41:21;;;;;;;1.02;0.43;;;;;;;30.20;48.56;100643.09;5025084;28;69018;-40
2021/08/24 03:43:51;;;;;;;0.68;0.60;;;;;;;30.19;48.46;100641.41;5009938;28;66017;-41
2021/08/24 03:46:21;;;;;;;0.75;0.32;;;;;;;30.16;47.13;100643.75;5031936;28;70640;-40
2021/08/24 03:48:52;;;;;;;0.30;0.30;;;;;;;30.09;47.96;100635.69;5025715;28;64832;-41
2021/08/24 03:51:22;;;;;;;1.35;0.35;;;;;;;30.15;47.38;100648.34;5027571;28;70005;-41
2021/08/24 03:53:53;;;;;;;0.60;0.47;;;;;;;30.13;47.11;100647.72;5015322;28;66728;-42
2021/08/24 03:56:24;;;;;;;0.80;0.50;;;;;;;30.09;46.44;100651.94;5029306;28;69730;-42
2021/08/24 03:58:54;;;;;;;0.30;0.28;;;;;;;30.11;46.34;100638.97;5030435;28;65107;-41
2021/08/24 04:01:24;;;;;;;0.47;0.32;;;;;;;30.10;45.94;100642.75;5029345;28;70635;-41
2021/08/24 04:03:57;;;;;;;0.30;0.30;;;;;;;30.09;45.78;100649.22;5026164;28;66233;-41
2021/08/24 04:06:27;;;;;;;0.28;0.28;;;;;;;30.08;45.44;100638.59;4999204;28;70047;-41
2021/08/24 04:08:59;;;;;;;2.93;0.30;;;;;;;30.07;45.63;100640.50;5030696;28;66338;-44
2021/08/24 04:11:29;;;;;;;0.40;0.30;;;;;;;30.04;45.07;100628.22;4999622;28;69852;-41
2021/08/24 04:14:00;;;;;;;0.43;0.30;;;;;;;30.06;44.97;100625.28;5014491;28;66386;-40
2021/08/24 04:16:30;;;;;;;0.50;0.30;;;;;;;30.09;44.97;100619.47;5031660;28;69042;-40
2021/08/24 04:19:00;;;;;;;0.57;0.30;;;;;;;30.11;44.88;100620.03;5028127;28;66060;-40
2021/08/24 04:21:31;;;;;;;0.60;0.30;;;;;;;30.11;44.89;100617.34;5028460;28;70353;-40
2021/08/24 04:24:01;;;;;;;0.38;0.30;;;;;;;30.08;44.43;100617.78;5026353;28;66557;-42
2021/08/24 04:26:32;;;;;;;0.80;0.40;;;;;;;30.08;44.25;100609.66;5030040;28;69078;-42
2021/08/24 04:29:03;;;;;;;1.17;0.80;;;;;;;30.10;46.58;100604.88;5014926;28;66027;-42
2021/08/24 04:31:40;;;;;;;2.38;1.15;;;;;;;30.01;48.51;100584.56;5027510;28;69497;-41
2021/08/24 04:34:10;;;;;;;2.47;1.52;;;;;;;30.19;47.81;100614.34;5029531;28;65353;-41
2021/08/24 04:36:40;;;;;;;1.40;1.05;;;;;;;30.22;47.70;100608.53;5025584;28;70770;-40
2021/08/24 04:39:11;;;;;;;0.85;0.73;;;;;;;30.19;46.70;100614.34;5025041;28;66459;-40
2021/08/24 04:41:41;;;;;;;1.27;0.80;;;;;;;30.23;46.52;100603.97;5009127;28;70204;-42
2021/08/24 04:44:11;;;;;;;1.50;0.80;;;;;;;30.16;46.50;100598.56;5026653;28;66228;-41
2021/08/24 04:46:41;;;;;;;1.33;0.80;;;;;;;30.23;46.99;100599.38;5028821;28;69993;-41
2021/08/24 04:49:11;;;;;;;0.88;0.57;;;;;;;30.16;46.23;100590.47;5027684;28;66290;-41
2021/08/24 04:51:42;;;;;;;1.70;1.15;;;;;;;30.19;45.68;100597.31;5028563;28;70274;-41
2021/08/24 04:54:12;;;;;;;0.60;0.50;;;;;;;30.19;45.77;100600.00;5043452;28;65794;-40
2021/08/24 04:56:42;;;;;;;0.43;0.40;;;;;;;30.17;44.78;100594.84;5024007;28;69994;-41
2021/08/24 04:59:13;;;;;;;0.75;0.50;;;;;;;30.14;44.74;100592.56;5030808;28;66240;-41
2021/08/24 05:01:43;;;;;;;0.93;0.65;;;;;;;30.13;44.51;100582.78;5027501;28;71672;-41
2021/08/24 05:04:14;;;;;;;1.15;0.60;;;;;;;30.14;43.70;100583.63;5032154;28;66036;-40
2021/08/24 05:06:45;;;;;;;3.17;0.90;;;;;;;30.17;45.32;100578.59;5030522;28;70083;-40
2021/08/24 05:09:15;;;;;;;6.22;0.80;;;;;;;30.20;45.62;100572.75;5014765;28;65537;-39
2021/08/24 05:11:46;;;;;;;4.00;0.73;;;;;;;30.05;45.52;100527.09;5029215;28;69167;-39
2021/08/24 05:14:17;;;;;;;1.50;0.80;;;;;;;30.33;46.39;100554.75;5033953;28;66160;-41
2021/08/24 05:16:52;;;;;;;1.63;0.75;;;;;;;30.34;47.17;100542.84;5037334;28;72090;-40
2021/08/24 05:19:23;;;;;;;9.07;1.02;;;;;;;30.37;47.51;100537.00;5026947;28;65365;-40
2021/08/24 05:21:54;;;;;;;1.67;0.90;;;;;;;30.35;48.84;100537.22;5031291;28;70147;-38
2021/08/24 05:24:26;;;;;;;5.47;0.70;;;;;;;30.39;48.87;100532.19;5028229;28;65255;-38
2021/08/24 05:26:56;;;;;;;2.30;1.25;;;;;;;30.48;51.33;100525.44;5031060;28;70439;-41
2021/08/24 05:29:27;;;;;;;5.63;1.30;;;;;;;30.58;50.44;100520.31;5027262;28;67066;-38
2021/08/24 05:31:58;;;;;;;9.85;1.52;;;;;;;30.60;49.77;100514.69;5028669;28;70468;-39
2021/08/24 05:34:28;;;;;;;9.70;1.50;;;;;;;30.60;49.48;100518.22;5009891;28;66484;-40
2021/08/24 05:36:58;;;;;;;8.75;1.33;;;;;;;30.60;48.89;100518.22;5029445;28;68426;-39
2021/08/24 05:39:28;;;;;;;8.30;1.85;;;;;;;30.57;49.75;100507.84;5033332;28;65493;-39
2021/08/24 05:42:00;;;;;;;4.13;1.75;;;;;;;30.48;49.95;100492.97;5025587;28;70365;-39
2021/08/24 05:44:31;;;;;;;6.78;1.25;;;;;;;30.53;48.69;100493.09;5034273;28;65420;-41
2021/08/24 05:47:01;;;;;;;1.52;1.00;;;;;;;30.55;48.07;100482.88;5022112;28;70141;-41
2021/08/24 05:49:35;;;;;;;2.85;0.80;;;;;;;30.51;47.27;100476.28;5031647;28;66596;-41
2021/08/24 05:52:09;;;;;;;1.27;0.75;;;;;;;30.02;46.46;100394.19;5031250;28;69736;-40
2021/08/24 05:54:39;;;;;;;0.95;0.73;;;;;;;30.45;45.42;100471.75;5024989;28;65774;-43
2021/08/24 05:57:10;;;;;;;2.55;0.90;;;;;;;30.42;45.40;100467.63;5027867;28;69139;-40
2021/08/24 05:59:40;;;;;;;0.77;0.57;;;;;;;30.32;44.80;100445.69;5029215;28;66647;-39
2021/08/24 06:02:11;;;;;;;1.45;0.60;;;;;;;30.39;44.10;100451.81;5027870;28;71419;-40
2021/08/24 06:04:42;;;;;;;15.25;0.80;;;;;;;30.35;44.36;100445.22;5030387;28;65697;-42
2021/08/24 06:07:13;;;;;;;1.30;0.50;;;;;;;30.34;43.99;100431.91;5025841;28;70143;-41
2021/08/24 06:09:43;;;;;;;0.68;0.47;;;;;;;30.30;43.77;100420.72;5028726;28;66796;-41
2021/08/24 06:12:14;;;;;;;0.75;0.47;;;;;;;30.25;43.48;100429.50;5045153;28;69355;-40
2021/08/24 06:14:44;;;;;;;3.45;0.25;;;;;;;30.27;43.20;100443.66;5029127;28;66314;-41
2021/08/24 06:17:30;;;;;;;0.80;0.43;;;;;;;30.25;42.57;100445.75;5022399;28;70263;-41
2021/08/24 06:20:00;;;;;;;4.35;0.60;;;;;;;30.31;45.02;100448.59;5033606;28;65667;-41
2021/08/24 06:22:31;;;;;;;1.30;1.00;;;;;;;30.34;47.08;100464.38;5032533;28;70325;-40
2021/08/24 06:25:02;;;;;;;2.22;1.20;;;;;;;30.41;49.54;100470.56;5014698;28;66115;-40
2021/08/24 06:27:33;;;;;;;5.22;1.50;;;;;;;30.38;49.14;100477.25;5033664;28;69862;-40
2021/08/24 06:30:04;;;;;;;1.77;1.23;;;;;;;30.40;49.29;100491.38;5026251;28;65003;-42
2021/08/24 06:32:40;;;;;;;1.75;1.15;;;;;;;30.12;49.73;100442.38;5031191;28;69468;-42
2021/08/24 06:35:10;;;;;;;2.47;1.48;;;;;;;30.37;49.35;100485.56;5028974;28;66490;-43
2021/08/24 06:37:41;;;;;;;2.00;1.10;;;;;;;30.29;49.81;100478.63;5032725;28;70280;-44
2021/08/24 06:40:14;;;;;;;1.17;1.02;;;;;;;30.31;49.40;100492.72;5032796;28;65385;-43
2021/08/24 06:42:50;;;;;;;1.65;1.33;;;;;;;30.22;49.69;100496.78;5031792;28;70538;-42
2021/08/24 06:45:29;;;;;;;1.33;0.98;;;;;;;30.15;48.46;100515.78;5032238;28;66012;-41
2021/08/24 06:47:59;;;;;;;1.00;0.90;;;;;;;30.15;49.80;100504.94;5027285;28;69619;-41
2021/08/24 06:50:31;;;;;;;0.63;0.60;;;;;;;30.14;49.75;100487.06;5030855;28;65778;-40
2021/08/24 06:53:03;;;;;;;2.10;1.00;;;;;;;30.12;49.71;100477.53;5028039;28;70274;-41
2021/08/24 06:55:34;;;;;;;0.90;0.70;;;;;;;30.09;49.52;100457.16;5027345;28;66951;-41
2021/08/24 06:58:10;;;;;;;1.52;0.73;;;;;;;30.05;49.03;100450.53;5033133;28;70360;-41
2021/08/24 07:00:44;;;;;;;0.88;0.60;;;;;;;30.03;48.87;100458.03;5034815;28;65318;-40
2021/08/24 07:03:16;;;;;;;0.80;0.60;;;;;;;29.99;49.14;100446.84;5029603;28;70482;-43
2021/08/24 07:05:51;;;;;;;0.75;0.50;;;;;;;29.79;48.74;100421.91;5032151;28;66063;-43
2021/08/24 07:08:22;;;;;;;0.65;0.50;;;;;;;29.94;48.23;100425.06;5033933;28;70266;-43
2021/08/24 07:10:54;;;;;;;0.40;0.40;;;;;;;29.87;48.46;100421.63;5034092;28;65173;-43
2021/08/24 07:13:27;;;;;;;0.30;0.30;;;;;;;29.83;47.87;100415.00;5030801;28;70078;-44
2021/08/24 07:15:58;;;;;;;0.50;0.40;;;;;;;29.78;47.97;100415.69;5027193;28;67092;-42
2021/08/24 07:18:29;;;;;;;0.40;0.40;;;;;;;29.75;47.49;100408.00;5031873;28;70465;-42
2021/08/24 07:21:01;;;;;;;0.40;0.40;;;;;;;29.71;47.46;100396.00;5030260;28;66354;-44
2021/08/24 07:23:33;;;;;;;0.57;0.40;;;;;;;29.66;47.25;100390.44;5030046;28;70530;-44
2021/08/24 07:26:04;;;;;;;0.30;0.30;;;;;;;29.61;47.04;100401.03;5033909;28;66520;-43
2021/08/24 07:28:36;;;;;;;0.40;0.35;;;;;;;29.59;47.40;100403.16;5033517;28;69050;-43
2021/08/24 07:31:08;;;;;;;2.40;0.30;;;;;;;29.50;47.18;100393.69;5027695;28;67135;-41
2021/08/24 07:33:39;;;;;;;0.40;0.30;;;;;;;29.54;47.17;100416.53;5034725;28;70383;-40
2021/08/24 07:36:11;;;;;;;0.73;0.40;;;;;;;29.49;47.67;100419.06;5028995;28;66003;-41
2021/08/24 07:38:41;;;;;;;0.30;0.30;;;;;;;29.45;47.23;100413.28;5029801;28;70284;-42
2021/08/24 07:41:12;;;;;;;0.40;0.30;;;;;;;29.44;47.13;100408.09;5023617;28;66004;-41
2021/08/24 07:43:52;;;;;;;0.50;0.30;;;;;;;29.42;47.23;100393.97;5023810;28;71050;-41
2021/08/24 07:46:27;;;;;;;0.30;0.30;;;;;;;29.38;47.00;100386.28;5016572;28;66159;-41
2021/08/24 07:49:34;;;;;;;0.40;0.30;;;;;;;29.25;47.05;100382.88;5022295;28;69493;-40
2021/08/24 07:52:10;;;;;;;0.50;0.30;;;;;;;29.06;46.80;100338.78;5027483;28;66417;-41
2021/08/24 07:54:47;;;;;;;1.10;0.40;;;;;;;29.31;46.50;100385.53;5023439;28;68999;-41
2021/08/24 07:57:17;;;;;;;0.45;0.30;;;;;;;29.28;47.12;100395.94;5026699;28;66003;-41
2021/08/24 07:59:48;;;;;;;0.40;0.40;;;;;;;29.28;47.14;100404.91;5024681;28;70241;-43
2021/08/24 08:02:19;;;;;;;0.98;0.30;;;;;;;29.29;47.45;100414.66;5028110;28;65680;-42
2021/08/24 08:04:50;;;;;;;0.80;0.30;;;;;;;29.22;47.41;100419.28;5029576;28;69720;-41
2021/08/24 08:07:22;;;;;;;0.30;0.30;;;;;;;29.14;47.08;100403.34;5009813;28;65271;-41
2021/08/24 08:09:53;;;;;;;0.40;0.30;;;;;;;29.24;47.10;100411.78;4996728;28;70625;-41
2021/08/24 08:12:23;;;;;;;0.65;0.40;;;;;;;29.23;47.02;100415.53;5041061;28;65763;-41
2021/08/24 08:14:54;;;;;;;2.22;0.45;;;;;;;29.04;47.34;100400.31;5023753;28;69148;-42
2021/08/24 08:17:25;;;;;;;0.40;0.40;;;;;;;29.19;49.20;100430.50;5027487;28;65561;-43
2021/08/24 08:19:55;;;;;;;1.70;0.40;;;;;;;29.24;50.22;100429.88;5025868;28;70118;-42
2021/08/24 08:22:26;;;;;;;3.28;0.40;;;;;;;29.31;51.05;100423.38;5025760;28;66415;-42
2021/08/24 08:24:58;;;;;;;2.10;0.38;;;;;;;29.35;51.43;100424.56;5026237;28;70017;-41
2021/08/24 08:27:28;;;;;;;0.85;0.30;;;;;;;29.26;52.51;100407.00;5028220;28;65605;-41
2021/08/24 08:29:59;;;;;;;0.95;0.40;;;;;;;29.34;52.78;100422.09;5024873;28;70576;-41
2021/08/24 08:32:32;;;;;;;1.58;0.50;;;;;;;29.26;53.36;100398.88;5030253;28;66158;-43
2021/08/24 08:35:03;;;;;;;1.58;0.40;;;;;;;29.57;54.51;100443.91;5026211;28;69071;-41
2021/08/24 08:37:34;;;;;;;1.13;0.40;;;;;;;29.59;54.60;100433.72;5029726;28;66439;-42
2021/08/24 08:40:08;;;;;;;0.80;0.40;;;;;;;29.42;55.19;100402.06;5026555;28;70159;-41
2021/08/24 08:43:00;;;;;;;8.35;0.40;;;;;;;29.60;55.24;100453.47;5026347;28;66206;-41
2021/08/24 08:45:45;;;;;;;3.45;0.30;;;;;;;29.47;55.35;100431.94;5028903;28;70521;-42
2021/08/24 08:49:01;;;;;;;2.97;0.70;;;;;;;29.75;56.02;100494.50;5026982;28;65363;-42
2021/08/24 08:52:13;;;;;;;2.30;0.30;;;;;;;29.82;56.62;100473.66;5023864;28;69982;-41
2021/08/24 08:55:04;;;;;;;2.08;0.30;;;;;;;29.66;56.98;100449.06;5025500;28;66233;-44
2021/08/24 08:58:07;;;;;;;3.20;0.30;;;;;;;29.91;56.41;100470.66;5030744;28;69381;-42
2021/08/24 09:00:54;;;;;;;0.82;0.30;;;;;;;29.90;56.77;100482.53;5024642;28;65634;-41
2021/08/24 09:03:51;;;;;;;1.55;0.32;;;;;;;29.92;57.08;100493.94;5026963;28;70094;-42
2021/08/24 09:06:26;;;;;;;3.28;0.30;;;;;;;30.03;56.86;100502.16;5027204;28;66324;-41
2021/08/24 09:09:00;;;;;;;3.25;0.22;;;;;;;30.05;57.79;100510.03;5029492;28;70698;-40
2021/08/24 09:11:36;;;;;;;36.30;2.42;;;;;;;29.86;59.25;100467.81;5023862;28;66781;-40
2021/08/24 09:14:27;;;;;;;9.60;0.70;;;;;;;30.03;61.27;100502.16;5029697;28;69715;-42
2021/08/24 09:17:13;;;;;;;4.90;0.60;;;;;;;29.89;61.97;100468.16;5027838;28;66689;-41
2021/08/24 09:19:50;;;;;;;2.38;0.60;;;;;;;30.17;62.62;100494.75;5030208;28;69943;-40
2021/08/24 09:22:20;;;;;;;1.90;0.60;;;;;;;30.18;62.05;100488.28;5019233;28;66440;-41
2021/08/24 09:24:50;;;;;;;1.85;0.70;;;;;;;30.22;63.15;100492.19;5025260;28;69229;-40
2021/08/24 09:27:43;;;;;;;2.08;0.60;;;;;;;30.27;64.29;100505.88;5026603;28;66146;-40
2021/08/24 09:30:14;;;;;;;3.50;0.98;;;;;;;30.26;64.54;100506.94;5028093;28;70401;-41
2021/08/24 09:33:09;;;;;;;5.85;1.20;;;;;;;30.19;65.73;100506.16;5024156;28;65146;-41
2021/08/24 09:35:48;;;;;;;3.20;1.27;;;;;;;30.18;66.19;100488.28;5026555;28;70119;-40
2021/08/24 09:38:24;;;;;;;1.50;1.00;;;;;;;30.38;66.64;100519.72;5033991;28;64964;-40
2021/08/24 09:41:00;;;;;;;2.03;0.77;;;;;;;30.40;66.67;100523.03;5026267;28;70253;-40
2021/08/24 09:43:33;;;;;;;2.00;1.23;;;;;;;30.39;66.20;100515.94;5027897;28;66424;-40
2021/08/24 09:46:18;;;;;;;1.52;1.25;;;;;;;30.33;66.54;100516.84;5030054;28;70276;-41
2021/08/24 09:49:01;;;;;;;1.50;0.85;;;;;;;30.09;66.52;100470.69;5024263;28;66372;-40
2021/08/24 09:51:53;;;;;;;1.13;0.90;;;;;;;30.41;66.07;100524.69;5024270;28;69336;-40
2021/08/24 09:54:36;;;;;;;2.70;1.27;;;;;;;30.38;66.56;100517.00;5023505;28;66399;-39
2021/08/24 09:57:12;;;;;;;5.30;0.90;;;;;;;30.40;66.55;100517.63;5025481;28;70204;-42
2021/08/24 10:00:06;;;;;;;6.38;0.60;;;;;;;30.30;66.55;100512.72;5024935;28;64873;-41
2021/08/24 10:02:48;;;;;;;1.33;0.68;;;;;;;30.38;66.04;100498.06;5019789;28;70186;-40
2021/08/24 10:05:22;;;;;;;4.72;0.73;;;;;;;30.39;65.92;100505.13;5031641;28;64882;-41
2021/08/24 10:07:55;;;;;;;0.68;0.50;;;;;;;30.14;65.62;100478.94;5031149;28;70468;-40
2021/08/24 10:10:38;;;;;;;3.60;0.60;;;;;;;30.15;65.37;100477.91;5027360;28;66261;-42
2021/08/24 10:13:44;;;;;;;4.38;0.60;;;;;;;30.23;66.11;100517.41;5023849;28;70379;-42
2021/08/24 10:16:33;;;;;;;3.83;0.63;;;;;;;30.30;65.55;100512.72;5009623;28;65488;-41
2021/08/24 10:19:17;;;;;;;5.38;1.30;;;;;;;30.28;65.95;100504.84;5027248;28;70565;-40
2021/08/24 10:22:05;;;;;;;4.95;1.40;;;;;;;30.30;66.78;100522.72;5028569;28;66685;-40
2021/08/24 10:24:39;;;;;;;3.17;2.63;;;;;;;30.18;66.57;100493.69;5011002;28;69331;-42
2021/08/24 10:27:31;;;;;;;2.53;2.33;;;;;;;30.33;67.11;100531.22;5030723;28;65871;-42
2021/08/24 10:30:10;;;;;;;5.15;2.53;;;;;;;30.36;67.71;100529.94;5030560;28;69635;-42
2021/08/24 10:32:55;;;;;;;2.75;2.35;;;;;;;29.92;67.38;100466.91;5012564;28;65878;-40
2021/08/24 10:35:30;;;;;;;3.47;2.33;;;;;;;30.42;67.85;100558.81;5029882;28;69531;-39
2021/08/24 10:38:01;;;;;;;2.58;2.38;;;;;;;30.41;67.68;100557.16;5030735;28;66192;-40
2021/08/24 10:40:46;;;;;;;6.80;2.60;;;;;;;30.38;67.78;100563.03;5023710;28;70464;-40
2021/08/24 10:43:23;;;;;;;1.75;1.60;;;;;;;30.30;67.79;100538.97;5033962;28;65862;-41
2021/08/24 10:46:17;;;;;;;2.63;1.67;;;;;;;30.36;68.31;100573.22;5041382;28;69644;-41
2021/08/24 10:48:47;;;;;;;4.15;1.92;;;;;;;30.41;68.00;100578.81;5023748;28;66541;-40
2021/08/24 10:51:33;;;;;;;3.10;1.75;;;;;;;30.40;68.36;100577.16;5022020;28;70384;-42
2021/08/24 10:54:22;;;;;;;3.35;1.60;;;;;;;30.42;68.48;100585.84;5022949;28;66265;-40
2021/08/24 10:57:13;;;;;;;2.55;1.52;;;;;;;30.35;68.12;100601.34;5027405;28;69871;-39
2021/08/24 10:59:59;;;;;;;4.47;2.13;;;;;;;30.25;68.39;100591.84;5024779;28;65639;-41
2021/08/24 11:02:56;;;;;;;4.72;1.90;;;;;;;30.26;65.69;100598.94;5024318;28;70223;-43
2021/08/24 11:05:46;;;;;;;1.52;1.33;;;;;;;30.06;63.62;100604.50;5030487;28;65568;-42
2021/08/24 11:08:19;;;;;;;2.35;1.05;;;;;;;30.03;61.98;100604.09;5031905;28;70695;-42
2021/08/24 11:11:07;;;;;;;1.35;0.90;;;;;;;29.86;60.84;100600.28;5029660;28;65250;-41
2021/08/24 11:13:57;;;;;;;1.77;0.70;;;;;;;29.79;59.72;100614.69;5027393;28;70015;-39
2021/08/24 11:16:51;;;;;;;0.75;0.60;;;;;;;29.63;58.25;100615.22;5020780;28;66446;-41
2021/08/24 11:19:50;;;;;;;3.22;0.70;;;;;;;29.49;57.16;100603.63;5030531;28;70110;-41
2021/08/24 11:22:38;;;;;;;2.83;0.80;;;;;;;29.34;56.47;100595.00;5025885;28;66525;-40
2021/08/24 11:25:55;;;;;;;1.90;0.50;;;;;;;29.31;55.84;100622.44;5029639;28;70766;-43
2021/08/24 11:28:57;;;;;;;1.15;0.60;;;;;;;29.30;55.50;100627.00;5031384;28;66145;-40
2021/08/24 11:31:51;;;;;;;2.13;0.80;;;;;;;28.91;55.12;100574.81;5033303;28;70294;-39
2021/08/24 11:34:37;;;;;;;4.03;1.00;;;;;;;29.02;54.66;100608.41;5031394;28;65027;-40
2021/08/24 11:37:37;;;;;;;3.50;0.60;;;;;;;29.00;54.16;100617.78;5030723;28;69462;-39
2021/08/24 11:40:10;;;;;;;1.30;0.65;;;;;;;29.13;53.93;100642.06;5034645;28;66275;-39
2021/08/24 11:42:46;;;;;;;1.55;0.82;;;;;;;28.83;53.40;100607.44;5028242;28;70211;-40
2021/08/24 11:45:27;;;;;;;1.45;0.50;;;;;;;28.92;53.00;100627.78;5026634;28;66658;-40
2021/08/24 11:48:06;;;;;;;1.15;0.63;;;;;;;29.03;52.64;100647.94;5027280;28;70164;-47
2021/08/24 11:50:48;;;;;;;1.38;0.82;;;;;;;28.99;52.35;100648.53;5027553;28;66089;-41
2021/08/24 11:53:37;;;;;;;1.33;0.57;;;;;;;28.90;52.41;100654.16;5034349;28;69332;-39
2021/08/24 11:56:11;;;;;;;7.38;0.50;;;;;;;28.91;51.63;100650.41;5030292;28;66229;-40
2021/08/24 11:58:48;;;;;;;2.38;0.73;;;;;;;28.90;51.76;100651.47;5032760;28;70347;-40
2021/08/24 12:01:21;;;;;;;0.95;0.57;;;;;;;28.88;51.71;100656.25;5031575;28;67454;-40
2021/08/24 12:03:56;;;;;;;4.55;0.63;;;;;;;28.82;50.81;100651.69;5033713;28;70640;-38
2021/08/24 12:06:41;;;;;;;2.25;0.40;;;;;;;28.84;50.75;100655.03;5029258;28;65677;-38
2021/08/24 12:09:33;;;;;;;4.10;0.70;;;;;;;28.50;50.34;100615.63;5034622;28;69360;-39
2021/08/24 12:12:06;;;;;;;1.60;0.60;;;;;;;28.74;50.31;100660.03;5032975;28;67366;-40